WetterOnline ( http://www.wetteronline.de )

Wetter aktuell Denkendorf

Aktuelles Wetter: Roth (386m)

6-stündlich | Neueste Meldungen
Ortszeit Temperatur Wetter
Sa, 20.10. 14:00 14.3° C wolkig
Sa, 20.10. 8:00 4.7° C bedeckt
Sa, 20.10. 2:00 4.2° C Nebel
Fr, 19.10. 20:00 10.3° C wolkig
Fr, 19.10. 14:00 15.9° C wolkenlos
Fr, 19.10. 8:00 5.4° C Nebel
Fr, 19.10. 2:00 7.6° C wolkenlos
Do, 18.10. 20:00 13.8° C leicht bewölkt
Ortszeit Temperatur Wetter
Sa, 20.10. 16:00 15.6° C leicht bewölkt
Sa, 20.10. 15:50 15.6° C leicht bewölkt
Sa, 20.10. 15:40 15.4° C wolkig
Sa, 20.10. 15:30 14.9° C wolkig
Sa, 20.10. 15:20 14.9° C wolkig
Sa, 20.10. 15:10 15.0° C wolkig
Sa, 20.10. 15:00 14.8° C wolkig
Sa, 20.10. 14:30 14.2° C wolkig
Sa, 20.10. 14:00 14.3° C wolkig
Sa, 20.10. 13:30 13.8° C bewölkt
Sa, 20.10. 13:00 13.0° C bedeckt
Ortszeit Relative Feuchte Sichtweite
Sa, 20.10. 14:00 67% 5.0 km
Sa, 20.10. 8:00 98% 1.4 km
Sa, 20.10. 2:00 97% 0.8 km
Fr, 19.10. 20:00 87% 5.0 km
Fr, 19.10. 14:00 61% 5.0 km
Fr, 19.10. 8:00 97% <100 m
Fr, 19.10. 2:00 97% 1.8 km
Do, 18.10. 20:00 69% 13 km
Ortszeit Relative Feuchte Sichtweite
Sa, 20.10. 16:00 57% 9 km
Sa, 20.10. 15:50 57% -
Sa, 20.10. 15:40 59% -
Sa, 20.10. 15:30 61% 7 km
Sa, 20.10. 15:20 61% -
Sa, 20.10. 15:10 62% -
Sa, 20.10. 15:00 63% 6 km
Sa, 20.10. 14:30 65% 5.0 km
Sa, 20.10. 14:00 67% 5.0 km
Sa, 20.10. 13:30 69% 4.9 km
Sa, 20.10. 13:00 73% 4.3 km
Ortszeit Niederschlagsmenge Niederschlagsart
Sa, 20.10. 14:00 0.0 l/m2 in 6 Std. -
Sa, 20.10. 8:00 0.0 l/m2 in 12 Std. -
Sa, 20.10. 2:00 0.0 l/m2 in 6 Std. -
Fr, 19.10. 20:00 0.1 l/m2 in 12 Std. -
Fr, 19.10. 14:00 0.1 l/m2 in 6 Std. -
Fr, 19.10. 8:00 0.0 l/m2 in 12 Std. -
Fr, 19.10. 2:00 0.0 l/m2 in 6 Std. -
Do, 18.10. 20:00 0.0 l/m2 in 12 Std. -
Ortszeit Niederschlagsmenge Niederschlagsart
Sa, 20.10. 16:00 0.0 l/m2 in 1 Std. -
Sa, 20.10. 15:50 keine Meldung -
Sa, 20.10. 15:40 keine Meldung -
Sa, 20.10. 15:30 0.0 l/m2 in 1 Std. -
Sa, 20.10. 15:20 keine Meldung -
Sa, 20.10. 15:10 keine Meldung -
Sa, 20.10. 15:00 0.0 l/m2 in 1 Std. -
Sa, 20.10. 14:30 0.0 l/m2 in 1 Std. -
Sa, 20.10. 14:00 0.0 l/m2 in 1 Std. -
Sa, 20.10. 13:30 0.0 l/m2 in 1 Std. -
Sa, 20.10. 13:00 0.0 l/m2 in 1 Std. -
Ortszeit Stärke Spitze Richtung
km/h Bft. km/h Grad Sektor
Sa, 20.10. 14:00 6 1 19 330° NW
Sa, 20.10. 8:00 4 1 7 180° S
Sa, 20.10. 2:00 0 0 4 - -
Fr, 19.10. 20:00 4 1 22 90° O
Fr, 19.10. 14:00 4 1 11 10° N
Fr, 19.10. 8:00 0 0 7 - -
Fr, 19.10. 2:00 7 2 14 10° N
Do, 18.10. 20:00 7 2 22 10° N
Ortszeit Stärke Spitze Richtung
km/h Bft. km/h Grad Sektor
Sa, 20.10. 16:00 13 3 20 310° NW
Sa, 20.10. 15:50 13 3 - 310° NW
Sa, 20.10. 15:40 9 2 - 320° NW
Sa, 20.10. 15:30 11 2 18 350° N
Sa, 20.10. 15:20 11 2 - 350° N
Sa, 20.10. 15:10 9 2 - 330° NW
Sa, 20.10. 15:00 11 2 18 350° N
Sa, 20.10. 14:30 9 2 15 350° N
Sa, 20.10. 14:00 6 1 19 330° NW
Sa, 20.10. 13:30 9 2 19 350° N
Sa, 20.10. 13:00 7 2 11 350° N
Ortszeit Untergrenze Bedeckung Gattung
total tief tief mittel hoch
Sa, 20.10. 14:00 1380 m 5/8 5/8 - - -
Sa, 20.10. 8:00 60 m 8/8 8/8 - - -
Sa, 20.10. 2:00 <30 m 6/8 6/8 - - -
Fr, 19.10. 20:00 8400 m 8/8 0/8 - - -
Fr, 19.10. 14:00 - 0/8 0/8 - - -
Fr, 19.10. 8:00 <30 m 8/8 8/8 - - -
Fr, 19.10. 2:00 - 0/8 0/8 - - -
Do, 18.10. 20:00 8400 m 3/8 0/8 - - -
Ortszeit Bedeckungsgrad in Achtel und Wolkenuntergrenze
Sa, 20.10. 16:00 1(1020m) 4(7200m) 5(8400m)
Sa, 20.10. 15:50 1(1020m) 4(7200m) 5(8400m)
Sa, 20.10. 15:40 2(900m) 6(7200m) 7(8700m)
Sa, 20.10. 15:30 4(900m) 7(7500m) 7(8700m)
Sa, 20.10. 15:20 4(900m) 7(7500m) 7(8700m)
Sa, 20.10. 15:10 2(810m) 3(960m) 7(7500m)
Sa, 20.10. 15:00 2(750m) 5(870m) 6(7500m)
Sa, 20.10. 14:30 1(750m) 5(1200m) 6(7500m)
Sa, 20.10. 14:00 5(1380m) 3(1170m) 5(1410m)
Sa, 20.10. 13:30 7(1380m)
Sa, 20.10. 13:00 8(1350m)
Ortszeit Luftdruck NN (hPa) Tendenz (hPa in 3 Std.)
Sa, 20.10. 14:00 1028 + 0,1
Sa, 20.10. 8:00 1029 + 1,6
Sa, 20.10. 2:00 1027 + 0,6
Fr, 19.10. 20:00 1024 + 1,1
Fr, 19.10. 14:00 1023 - 0,6
Fr, 19.10. 8:00 1024 + 0,3
Fr, 19.10. 2:00 1023 0,0
Do, 18.10. 20:00 1021 + 1,3
Ortszeit Luftdruck NN (hPa) Tendenz (hPa in 3 Std.)
Sa, 20.10. 16:00 1028 - 1,0
Sa, 20.10. 15:50 1028 keine Meldung
Sa, 20.10. 15:40 1028 keine Meldung
Sa, 20.10. 15:30 1028 - 1,1
Sa, 20.10. 15:20 1028 keine Meldung
Sa, 20.10. 15:10 1028 keine Meldung
Sa, 20.10. 15:00 1028 - 1,0
Sa, 20.10. 14:30 1028 - 0,5
Sa, 20.10. 14:00 1028 + 0,1
Sa, 20.10. 13:30 1029 + 0,5
Sa, 20.10. 13:00 1029 + 0,8
Ortszeit Schneehöhe (cm)
Sa, 20.10. 14:00 0
Sa, 20.10. 8:00 0
Sa, 20.10. 2:00 0
Fr, 19.10. 20:00 0
Fr, 19.10. 14:00 0
Fr, 19.10. 8:00 0
Fr, 19.10. 2:00 0
Do, 18.10. 20:00 0
Ortszeit Schneehöhe (cm)
Sa, 20.10. 16:00 0
Sa, 20.10. 15:50 0
Sa, 20.10. 15:40 0
Sa, 20.10. 15:30 0
Sa, 20.10. 15:20 0
Sa, 20.10. 15:10 0
Sa, 20.10. 15:00 0
Sa, 20.10. 14:30 0
Sa, 20.10. 14:00 0
Sa, 20.10. 13:30 0
Sa, 20.10. 13:00 0
Link zu dieser Seite / Seite empfehlen

Das Wetter in ...